sensor_id;sensor_type;location;lat;lon;timestamp;pressure;altitude;pressure_sealevel;temperature;humidity
24762;BME280;12865;51.934;10.330;2023-04-23T00:03:21;98258.78;;;15.63;83.57
24762;BME280;12865;51.934;10.330;2023-04-23T00:06:08;98271.41;;;15.62;83.99
24762;BME280;12865;51.934;10.330;2023-04-23T00:08:56;98261.28;;;15.64;83.82
24762;BME280;12865;51.934;10.330;2023-04-23T00:11:42;98263.22;;;15.77;83.28
24762;BME280;12865;51.934;10.330;2023-04-23T00:14:27;98250.25;;;15.81;82.93
24762;BME280;12865;51.934;10.330;2023-04-23T00:17:13;98253.13;;;15.79;83.45
24762;BME280;12865;51.934;10.330;2023-04-23T00:19:59;98251.25;;;15.80;83.16
24762;BME280;12865;51.934;10.330;2023-04-23T00:22:45;98249.78;;;15.77;83.06
24762;BME280;12865;51.934;10.330;2023-04-23T00:25:31;98243.38;;;15.78;83.28
24762;BME280;12865;51.934;10.330;2023-04-23T00:28:16;98245.25;;;15.78;83.63
24762;BME280;12865;51.934;10.330;2023-04-23T00:31:02;98247.69;;;15.73;83.55
24762;BME280;12865;51.934;10.330;2023-04-23T00:33:48;98240.06;;;15.69;84.55
24762;BME280;12865;51.934;10.330;2023-04-23T00:36:33;98247.69;;;15.73;83.71
24762;BME280;12865;51.934;10.330;2023-04-23T00:39:19;98242.28;;;15.66;84.05
24762;BME280;12865;51.934;10.330;2023-04-23T00:42:05;98248.75;;;15.78;83.23
24762;BME280;12865;51.934;10.330;2023-04-23T00:44:56;98245.19;;;15.71;83.38
24762;BME280;12865;51.934;10.330;2023-04-23T00:47:43;98245.94;;;15.58;84.57
24762;BME280;12865;51.934;10.330;2023-04-23T00:50:29;98247.38;;;15.54;84.98
24762;BME280;12865;51.934;10.330;2023-04-23T00:53:15;98247.78;;;15.58;85.22
24762;BME280;12865;51.934;10.330;2023-04-23T00:56:02;98248.53;;;15.52;85.86
24762;BME280;12865;51.934;10.330;2023-04-23T00:58:50;98249.03;;;15.55;85.79
24762;BME280;12865;51.934;10.330;2023-04-23T01:01:36;98248.94;;;15.49;86.46
24762;BME280;12865;51.934;10.330;2023-04-23T01:04:23;98241.47;;;15.44;87.31
24762;BME280;12865;51.934;10.330;2023-04-23T01:07:12;98250.13;;;15.40;88.22
24762;BME280;12865;51.934;10.330;2023-04-23T01:09:58;98251.78;;;15.41;89.40
24762;BME280;12865;51.934;10.330;2023-04-23T01:12:43;98247.19;;;15.35;91.65
24762;BME280;12865;51.934;10.330;2023-04-23T01:15:29;98261.94;;;15.24;95.04
24762;BME280;12865;51.934;10.330;2023-04-23T01:18:15;98244.75;;;15.18;96.11
24762;BME280;12865;51.934;10.330;2023-04-23T01:21:04;98259.78;;;15.13;97.55
24762;BME280;12865;51.934;10.330;2023-04-23T01:23:50;98253.13;;;15.09;98.60
24762;BME280;12865;51.934;10.330;2023-04-23T01:26:36;98253.25;;;15.01;99.00
24762;BME280;12865;51.934;10.330;2023-04-23T01:29:22;98258.25;;;15.04;99.34
24762;BME280;12865;51.934;10.330;2023-04-23T01:32:07;98260.88;;;14.97;100.00
24762;BME280;12865;51.934;10.330;2023-04-23T01:34:54;98257.41;;;14.82;100.00
24762;BME280;12865;51.934;10.330;2023-04-23T01:37:41;98260.34;;;14.87;100.00
24762;BME280;12865;51.934;10.330;2023-04-23T01:40:28;98252.97;;;14.74;100.00
24762;BME280;12865;51.934;10.330;2023-04-23T01:43:14;98245.44;;;14.63;100.00
24762;BME280;12865;51.934;10.330;2023-04-23T01:46:00;98238.53;;;14.54;100.00
24762;BME280;12865;51.934;10.330;2023-04-23T01:48:46;98245.00;;;14.45;100.00
24762;BME280;12865;51.934;10.330;2023-04-23T01:51:31;98243.53;;;14.42;100.00
24762;BME280;12865;51.934;10.330;2023-04-23T01:54:17;98235.88;;;14.39;100.00
24762;BME280;12865;51.934;10.330;2023-04-23T01:57:04;98243.63;;;14.34;100.00
24762;BME280;12865;51.934;10.330;2023-04-23T01:59:49;98239.63;;;14.30;100.00
24762;BME280;12865;51.934;10.330;2023-04-23T02:02:36;98232.44;;;14.16;100.00
24762;BME280;12865;51.934;10.330;2023-04-23T02:05:23;98224.69;;;14.06;100.00
24762;BME280;12865;51.934;10.330;2023-04-23T02:08:10;98242.44;;;14.07;100.00
24762;BME280;12865;51.934;10.330;2023-04-23T02:10:55;98245.31;;;14.06;100.00
24762;BME280;12865;51.934;10.330;2023-04-23T02:13:41;98237.38;;;13.98;100.00
24762;BME280;12865;51.934;10.330;2023-04-23T02:16:27;98240.69;;;14.00;100.00
24762;BME280;12865;51.934;10.330;2023-04-23T02:19:12;98239.22;;;13.97;100.00
24762;BME280;12865;51.934;10.330;2023-04-23T02:22:00;98231.00;;;13.99;100.00
24762;BME280;12865;51.934;10.330;2023-04-23T02:24:46;98240.22;;;13.96;100.00
24762;BME280;12865;51.934;10.330;2023-04-23T02:27:32;98236.25;;;13.92;100.00
24762;BME280;12865;51.934;10.330;2023-04-23T02:30:18;98237.28;;;13.91;100.00
24762;BME280;12865;51.934;10.330;2023-04-23T02:33:04;98234.59;;;13.91;100.00
24762;BME280;12865;51.934;10.330;2023-04-23T02:35:49;98231.25;;;13.89;100.00
24762;BME280;12865;51.934;10.330;2023-04-23T02:38:35;98239.31;;;13.89;100.00
24762;BME280;12865;51.934;10.330;2023-04-23T02:41:21;98237.63;;;13.88;100.00
24762;BME280;12865;51.934;10.330;2023-04-23T02:44:07;98238.69;;;13.87;100.00
24762;BME280;12865;51.934;10.330;2023-04-23T02:46:52;98239.78;;;13.78;100.00
24762;BME280;12865;51.934;10.330;2023-04-23T02:49:38;98245.56;;;13.67;100.00
24762;BME280;12865;51.934;10.330;2023-04-23T02:52:24;98252.59;;;13.68;100.00
24762;BME280;12865;51.934;10.330;2023-04-23T02:55:09;98250.19;;;13.58;100.00
24762;BME280;12865;51.934;10.330;2023-04-23T02:57:55;98241.97;;;13.45;100.00
24762;BME280;12865;51.934;10.330;2023-04-23T03:00:41;98252.88;;;13.58;100.00
24762;BME280;12865;51.934;10.330;2023-04-23T03:03:28;98244.88;;;13.35;100.00
24762;BME280;12865;51.934;10.330;2023-04-23T03:06:16;98246.16;;;13.40;100.00
24762;BME280;12865;51.934;10.330;2023-04-23T03:09:02;98249.19;;;13.22;100.00
24762;BME280;12865;51.934;10.330;2023-04-23T03:11:49;98252.59;;;13.16;100.00
24762;BME280;12865;51.934;10.330;2023-04-23T03:14:35;98249.72;;;13.17;100.00
24762;BME280;12865;51.934;10.330;2023-04-23T03:17:21;98251.59;;;13.09;100.00
24762;BME280;12865;51.934;10.330;2023-04-23T03:20:08;98258.13;;;13.06;100.00
24762;BME280;12865;51.934;10.330;2023-04-23T03:22:55;98257.09;;;13.15;100.00
24762;BME280;12865;51.934;10.330;2023-04-23T03:25:41;98257.28;;;13.06;100.00
24762;BME280;12865;51.934;10.330;2023-04-23T03:28:26;98261.47;;;13.08;100.00
24762;BME280;12865;51.934;10.330;2023-04-23T03:31:12;98258.13;;;13.06;100.00
24762;BME280;12865;51.934;10.330;2023-04-23T03:33:58;98259.31;;;13.04;100.00
24762;BME280;12865;51.934;10.330;2023-04-23T03:36:43;98257.19;;;12.99;100.00
24762;BME280;12865;51.934;10.330;2023-04-23T03:39:30;98257.56;;;12.96;100.00
24762;BME280;12865;51.934;10.330;2023-04-23T03:42:16;98257.56;;;12.96;100.00
24762;BME280;12865;51.934;10.330;2023-04-23T03:45:02;98258.38;;;12.96;100.00
24762;BME280;12865;51.934;10.330;2023-04-23T03:47:48;98256.06;;;12.93;100.00
24762;BME280;12865;51.934;10.330;2023-04-23T03:50:33;98260.41;;;12.94;100.00
24762;BME280;12865;51.934;10.330;2023-04-23T03:53:23;98258.56;;;12.95;100.00
24762;BME280;12865;51.934;10.330;2023-04-23T03:56:08;98265.25;;;12.91;100.00
24762;BME280;12865;51.934;10.330;2023-04-23T03:58:54;98262.59;;;12.91;100.00
24762;BME280;12865;51.934;10.330;2023-04-23T04:01:40;98257.06;;;12.92;100.00
24762;BME280;12865;51.934;10.330;2023-04-23T04:04:25;98264.97;;;12.86;100.00
24762;BME280;12865;51.934;10.330;2023-04-23T04:07:11;98268.06;;;12.75;100.00
24762;BME280;12865;51.934;10.330;2023-04-23T04:09:57;98278.22;;;12.79;100.00
24762;BME280;12865;51.934;10.330;2023-04-23T04:12:42;98274.03;;;12.77;100.00
24762;BME280;12865;51.934;10.330;2023-04-23T04:15:29;98270.53;;;12.76;100.00
24762;BME280;12865;51.934;10.330;2023-04-23T04:18:16;98284.75;;;12.77;100.00
24762;BME280;12865;51.934;10.330;2023-04-23T04:21:02;98284.41;;;12.80;100.00
24762;BME280;12865;51.934;10.330;2023-04-23T04:23:48;98287.41;;;12.77;100.00
24762;BME280;12865;51.934;10.330;2023-04-23T04:26:33;98291.59;;;12.79;100.00
24762;BME280;12865;51.934;10.330;2023-04-23T04:29:19;98289.38;;;12.83;100.00
24762;BME280;12865;51.934;10.330;2023-04-23T04:32:07;98293.09;;;12.82;100.00
24762;BME280;12865;51.934;10.330;2023-04-23T04:34:53;98297.78;;;12.80;100.00
24762;BME280;12865;51.934;10.330;2023-04-23T04:37:39;98292.44;;;12.80;100.00
24762;BME280;12865;51.934;10.330;2023-04-23T04:40:25;98298.63;;;12.80;100.00
24762;BME280;12865;51.934;10.330;2023-04-23T04:43:12;98290.63;;;12.72;100.00
24762;BME280;12865;51.934;10.330;2023-04-23T04:45:58;98299.50;;;12.73;100.00
24762;BME280;12865;51.934;10.330;2023-04-23T04:48:44;98301.50;;;12.71;100.00
24762;BME280;12865;51.934;10.330;2023-04-23T04:51:30;98298.16;;;12.69;100.00
24762;BME280;12865;51.934;10.330;2023-04-23T04:54:15;98301.66;;;12.69;100.00
24762;BME280;12865;51.934;10.330;2023-04-23T04:57:01;98305.91;;;12.55;100.00
24762;BME280;12865;51.934;10.330;2023-04-23T04:59:48;98307.09;;;12.61;100.00
24762;BME280;12865;51.934;10.330;2023-04-23T05:02:33;98314.59;;;12.57;100.00
24762;BME280;12865;51.934;10.330;2023-04-23T05:05:21;98314.78;;;12.56;100.00
24762;BME280;12865;51.934;10.330;2023-04-23T05:08:07;98319.13;;;12.57;100.00
24762;BME280;12865;51.934;10.330;2023-04-23T05:10:53;98322.75;;;12.64;100.00
24762;BME280;12865;51.934;10.330;2023-04-23T05:13:40;98328.09;;;12.64;100.00
24762;BME280;12865;51.934;10.330;2023-04-23T05:16:25;98330.66;;;12.57;100.00
24762;BME280;12865;51.934;10.330;2023-04-23T05:19:11;98336.00;;;12.57;100.00
24762;BME280;12865;51.934;10.330;2023-04-23T05:21:56;98343.34;;;12.55;100.00
24762;BME280;12865;51.934;10.330;2023-04-23T05:24:42;98347.78;;;12.40;100.00
24762;BME280;12865;51.934;10.330;2023-04-23T05:27:29;98342.75;;;12.37;100.00
24762;BME280;12865;51.934;10.330;2023-04-23T05:30:15;98347.00;;;12.24;100.00
24762;BME280;12865;51.934;10.330;2023-04-23T05:33:01;98356.69;;;12.16;100.00
24762;BME280;12865;51.934;10.330;2023-04-23T05:35:46;98349.69;;;12.15;100.00
24762;BME280;12865;51.934;10.330;2023-04-23T05:38:32;98350.50;;;12.24;100.00
24762;BME280;12865;51.934;10.330;2023-04-23T05:41:18;98354.63;;;12.35;100.00
24762;BME280;12865;51.934;10.330;2023-04-23T05:44:03;98352.47;;;12.38;100.00
24762;BME280;12865;51.934;10.330;2023-04-23T05:46:49;98356.44;;;12.42;100.00
24762;BME280;12865;51.934;10.330;2023-04-23T05:49:35;98363.28;;;12.45;100.00
24762;BME280;12865;51.934;10.330;2023-04-23T05:52:20;98366.13;;;12.43;100.00
24762;BME280;12865;51.934;10.330;2023-04-23T05:55:06;98355.47;;;12.35;100.00
24762;BME280;12865;51.934;10.330;2023-04-23T05:57:54;98364.81;;;12.39;100.00
24762;BME280;12865;51.934;10.330;2023-04-23T06:00:39;98361.94;;;12.49;100.00
24762;BME280;12865;51.934;10.330;2023-04-23T06:03:25;98362.28;;;12.46;100.00
24762;BME280;12865;51.934;10.330;2023-04-23T06:06:11;98365.66;;;12.40;100.00
24762;BME280;12865;51.934;10.330;2023-04-23T06:08:57;98369.00;;;12.34;100.00
24762;BME280;12865;51.934;10.330;2023-04-23T06:11:43;98367.28;;;12.49;100.00
24762;BME280;12865;51.934;10.330;2023-04-23T06:14:28;98360.94;;;12.42;100.00
24762;BME280;12865;51.934;10.330;2023-04-23T06:17:14;98369.81;;;12.42;100.00
24762;BME280;12865;51.934;10.330;2023-04-23T06:20:00;98375.84;;;12.36;100.00
24762;BME280;12865;51.934;10.330;2023-04-23T06:22:45;98371.56;;;12.11;100.00
24762;BME280;12865;51.934;10.330;2023-04-23T06:25:31;98376.22;;;12.17;100.00
24762;BME280;12865;51.934;10.330;2023-04-23T06:28:17;98374.41;;;12.17;100.00
24762;BME280;12865;51.934;10.330;2023-04-23T06:31:02;98377.53;;;12.21;100.00
24762;BME280;12865;51.934;10.330;2023-04-23T06:33:50;98377.38;;;12.23;100.00
24762;BME280;12865;51.934;10.330;2023-04-23T06:36:35;98381.28;;;12.04;100.00
24762;BME280;12865;51.934;10.330;2023-04-23T06:39:21;98374.09;;;11.96;100.00
24762;BME280;12865;51.934;10.330;2023-04-23T06:42:06;98377.59;;;11.97;100.00
24762;BME280;12865;51.934;10.330;2023-04-23T06:44:52;98375.09;;;11.95;100.00
24762;BME280;12865;51.934;10.330;2023-04-23T06:47:38;98377.25;;;11.92;100.00
24762;BME280;12865;51.934;10.330;2023-04-23T06:50:24;98377.25;;;12.00;100.00
24762;BME280;12865;51.934;10.330;2023-04-23T06:53:09;98382.44;;;11.93;100.00
24762;BME280;12865;51.934;10.330;2023-04-23T06:55:55;98381.81;;;11.83;100.00
24762;BME280;12865;51.934;10.330;2023-04-23T06:58:41;98378.28;;;11.91;100.00
24762;BME280;12865;51.934;10.330;2023-04-23T07:01:26;98365.25;;;11.96;100.00
24762;BME280;12865;51.934;10.330;2023-04-23T07:04:12;98360.22;;;12.09;100.00
24762;BME280;12865;51.934;10.330;2023-04-23T07:06:58;98360.03;;;12.18;100.00
24762;BME280;12865;51.934;10.330;2023-04-23T07:09:44;98372.72;;;12.25;100.00
24762;BME280;12865;51.934;10.330;2023-04-23T07:12:30;98371.00;;;12.40;100.00
24762;BME280;12865;51.934;10.330;2023-04-23T07:15:15;98365.28;;;12.51;100.00
24762;BME280;12865;51.934;10.330;2023-04-23T07:18:01;98360.78;;;12.43;100.00
24762;BME280;12865;51.934;10.330;2023-04-23T07:20:47;98359.75;;;12.52;100.00
24762;BME280;12865;51.934;10.330;2023-04-23T07:23:33;98353.06;;;12.48;100.00
24762;BME280;12865;51.934;10.330;2023-04-23T07:26:19;98352.78;;;12.82;100.00
24762;BME280;12865;51.934;10.330;2023-04-23T07:29:05;98347.81;;;13.02;100.00
24762;BME280;12865;51.934;10.330;2023-04-23T07:31:52;98349.44;;;13.34;100.00
24762;BME280;12865;51.934;10.330;2023-04-23T07:34:38;98345.94;;;13.33;100.00
24762;BME280;12865;51.934;10.330;2023-04-23T07:37:23;98339.84;;;13.62;100.00
24762;BME280;12865;51.934;10.330;2023-04-23T07:40:09;98351.38;;;13.86;100.00
24762;BME280;12865;51.934;10.330;2023-04-23T07:42:55;98355.13;;;14.14;100.00
24762;BME280;12865;51.934;10.330;2023-04-23T07:45:41;98362.06;;;14.38;100.00
24762;BME280;12865;51.934;10.330;2023-04-23T07:48:27;98364.56;;;14.69;100.00
24762;BME280;12865;51.934;10.330;2023-04-23T07:51:13;98355.34;;;14.42;95.27
24762;BME280;12865;51.934;10.330;2023-04-23T07:54:01;98359.31;;;14.61;89.72
24762;BME280;12865;51.934;10.330;2023-04-23T07:56:47;98362.34;;;14.72;89.15
24762;BME280;12865;51.934;10.330;2023-04-23T07:59:33;98359.38;;;14.67;89.59
24762;BME280;12865;51.934;10.330;2023-04-23T08:02:19;98357.19;;;15.07;92.12
24762;BME280;12865;51.934;10.330;2023-04-23T08:05:08;98353.75;;;15.13;86.49
24762;BME280;12865;51.934;10.330;2023-04-23T08:07:54;98344.47;;;15.37;88.65
24762;BME280;12865;51.934;10.330;2023-04-23T08:10:39;98353.00;;;14.83;87.95
24762;BME280;12865;51.934;10.330;2023-04-23T08:13:25;98342.69;;;15.22;88.05
24762;BME280;12865;51.934;10.330;2023-04-23T08:16:11;98344.97;;;15.61;90.79
24762;BME280;12865;51.934;10.330;2023-04-23T08:18:56;98347.00;;;15.81;84.81
24762;BME280;12865;51.934;10.330;2023-04-23T08:21:42;98337.81;;;15.96;85.96
24762;BME280;12865;51.934;10.330;2023-04-23T08:24:28;98334.59;;;15.58;79.52
24762;BME280;12865;51.934;10.330;2023-04-23T08:27:14;98343.28;;;15.82;85.60
24762;BME280;12865;51.934;10.330;2023-04-23T08:30:00;98344.34;;;16.15;84.22
24762;BME280;12865;51.934;10.330;2023-04-23T08:32:48;98345.91;;;16.31;76.27
24762;BME280;12865;51.934;10.330;2023-04-23T08:35:35;98342.03;;;16.40;77.74
24762;BME280;12865;51.934;10.330;2023-04-23T08:38:20;98335.56;;;16.34;76.47
24762;BME280;12865;51.934;10.330;2023-04-23T08:41:09;98345.94;;;16.37;79.00
24762;BME280;12865;51.934;10.330;2023-04-23T08:44:06;98332.59;;;16.57;76.51
24762;BME280;12865;51.934;10.330;2023-04-23T08:46:53;98332.53;;;16.44;76.28
24762;BME280;12865;51.934;10.330;2023-04-23T08:49:40;98329.34;;;16.62;75.42
24762;BME280;12865;51.934;10.330;2023-04-23T08:52:32;98338.78;;;16.92;73.77
24762;BME280;12865;51.934;10.330;2023-04-23T08:55:19;98331.81;;;17.17;74.61
24762;BME280;12865;51.934;10.330;2023-04-23T08:58:06;98338.16;;;16.90;71.42
24762;BME280;12865;51.934;10.330;2023-04-23T09:00:52;98334.72;;;17.16;69.77
24762;BME280;12865;51.934;10.330;2023-04-23T09:03:39;98339.09;;;17.17;70.44
24762;BME280;12865;51.934;10.330;2023-04-23T09:06:25;98332.03;;;17.16;69.08
24762;BME280;12865;51.934;10.330;2023-04-23T09:09:15;98346.25;;;16.97;72.49
24762;BME280;12865;51.934;10.330;2023-04-23T09:12:03;98343.25;;;17.33;72.78
24762;BME280;12865;51.934;10.330;2023-04-23T09:14:50;98346.00;;;17.59;67.37
24762;BME280;12865;51.934;10.330;2023-04-23T09:17:42;98333.56;;;17.51;68.43
24762;BME280;12865;51.934;10.330;2023-04-23T09:20:28;98323.13;;;17.22;71.94
24762;BME280;12865;51.934;10.330;2023-04-23T09:23:14;98328.78;;;17.60;65.57
24762;BME280;12865;51.934;10.330;2023-04-23T09:26:04;98326.53;;;18.03;63.77
24762;BME280;12865;51.934;10.330;2023-04-23T09:28:50;98321.09;;;18.23;62.70
24762;BME280;12865;51.934;10.330;2023-04-23T09:31:36;98327.56;;;18.09;57.66
24762;BME280;12865;51.934;10.330;2023-04-23T09:34:23;98331.53;;;17.80;58.83
24762;BME280;12865;51.934;10.330;2023-04-23T09:37:09;98322.38;;;18.20;60.26
24762;BME280;12865;51.934;10.330;2023-04-23T09:40:00;98315.34;;;17.93;59.88
24762;BME280;12865;51.934;10.330;2023-04-23T09:42:48;98305.78;;;17.97;56.72
24762;BME280;12865;51.934;10.330;2023-04-23T09:45:47;98315.31;;;17.66;59.24
24762;BME280;12865;51.934;10.330;2023-04-23T09:48:42;98311.59;;;17.87;61.15
24762;BME280;12865;51.934;10.330;2023-04-23T09:51:29;98312.03;;;17.91;60.48
24762;BME280;12865;51.934;10.330;2023-04-23T09:54:17;98299.88;;;18.46;62.63
24762;BME280;12865;51.934;10.330;2023-04-23T09:57:04;98300.75;;;18.33;56.21
24762;BME280;12865;51.934;10.330;2023-04-23T09:59:56;98308.00;;;18.33;54.98
24762;BME280;12865;51.934;10.330;2023-04-23T10:02:45;98300.47;;;18.61;55.54
24762;BME280;12865;51.934;10.330;2023-04-23T10:05:39;98293.56;;;18.72;59.75
24762;BME280;12865;51.934;10.330;2023-04-23T10:08:26;98298.88;;;18.34;57.18
24762;BME280;12865;51.934;10.330;2023-04-23T10:11:12;98304.41;;;18.65;57.17
24762;BME280;12865;51.934;10.330;2023-04-23T10:13:57;98304.19;;;19.11;56.50
24762;BME280;12865;51.934;10.330;2023-04-23T10:16:45;98301.91;;;18.51;55.97
24762;BME280;12865;51.934;10.330;2023-04-23T10:19:31;98303.44;;;18.98;54.68
24762;BME280;12865;51.934;10.330;2023-04-23T10:22:18;98292.44;;;18.35;57.23
24762;BME280;12865;51.934;10.330;2023-04-23T10:25:08;98294.72;;;18.96;57.37
24762;BME280;12865;51.934;10.330;2023-04-23T10:27:56;98298.75;;;19.49;53.34
24762;BME280;12865;51.934;10.330;2023-04-23T10:30:43;98291.28;;;19.51;51.36
24762;BME280;12865;51.934;10.330;2023-04-23T10:33:30;98286.97;;;19.37;52.44
24762;BME280;12865;51.934;10.330;2023-04-23T10:36:16;98286.91;;;19.50;54.64
24762;BME280;12865;51.934;10.330;2023-04-23T10:39:02;98282.56;;;20.17;53.06
24762;BME280;12865;51.934;10.330;2023-04-23T10:41:53;98283.50;;;20.66;52.52
24762;BME280;12865;51.934;10.330;2023-04-23T10:44:42;98287.81;;;20.37;47.00
24762;BME280;12865;51.934;10.330;2023-04-23T10:47:27;98293.72;;;19.59;49.32
24762;BME280;12865;51.934;10.330;2023-04-23T10:50:24;98283.75;;;19.22;50.33
24762;BME280;12865;51.934;10.330;2023-04-23T10:53:19;98303.53;;;19.54;50.34
24762;BME280;12865;51.934;10.330;2023-04-23T10:56:06;98301.63;;;19.23;52.07
24762;BME280;12865;51.934;10.330;2023-04-23T10:58:52;98305.00;;;19.43;50.32
24762;BME280;12865;51.934;10.330;2023-04-23T11:01:38;98299.59;;;19.43;50.15
24762;BME280;12865;51.934;10.330;2023-04-23T11:04:28;98296.00;;;19.25;50.54
24762;BME280;12865;51.934;10.330;2023-04-23T11:07:17;98290.75;;;19.30;49.57
24762;BME280;12865;51.934;10.330;2023-04-23T11:10:13;98289.47;;;18.63;52.33
24762;BME280;12865;51.934;10.330;2023-04-23T11:13:29;98291.72;;;18.66;55.19
24762;BME280;12865;51.934;10.330;2023-04-23T11:16:16;98290.28;;;19.08;54.15
24762;BME280;12865;51.934;10.330;2023-04-23T11:19:07;98285.13;;;19.63;50.41
24762;BME280;12865;51.934;10.330;2023-04-23T11:24:45;98290.84;;;20.22;47.92
24762;BME280;12865;51.934;10.330;2023-04-23T11:27:31;98289.56;;;19.82;47.23
24762;BME280;12865;51.934;10.330;2023-04-23T11:30:19;98280.47;;;19.76;47.53
24762;BME280;12865;51.934;10.330;2023-04-23T11:33:05;98273.72;;;19.29;48.37
24762;BME280;12865;51.934;10.330;2023-04-23T11:35:51;98264.94;;;19.90;48.27
24762;BME280;12865;51.934;10.330;2023-04-23T11:38:37;98271.09;;;20.58;49.01
24762;BME280;12865;51.934;10.330;2023-04-23T11:41:23;98259.81;;;21.09;46.66
24762;BME280;12865;51.934;10.330;2023-04-23T11:44:08;98249.91;;;19.76;45.09
24762;BME280;12865;51.934;10.330;2023-04-23T11:46:54;98269.91;;;19.93;46.99
24762;BME280;12865;51.934;10.330;2023-04-23T11:49:41;98257.69;;;20.27;50.35
24762;BME280;12865;51.934;10.330;2023-04-23T11:52:27;98255.97;;;20.99;47.97
24762;BME280;12865;51.934;10.330;2023-04-23T11:55:13;98252.09;;;20.95;45.31
24762;BME280;12865;51.934;10.330;2023-04-23T11:58:00;98247.94;;;20.92;42.99
24762;BME280;12865;51.934;10.330;2023-04-23T12:00:45;98246.91;;;20.75;45.30
24762;BME280;12865;51.934;10.330;2023-04-23T12:03:31;98246.75;;;21.18;46.46
24762;BME280;12865;51.934;10.330;2023-04-23T12:08:45;98239.28;;;21.02;46.63
24762;BME280;12865;51.934;10.330;2023-04-23T12:11:34;98245.41;;;21.09;45.12
24762;BME280;12865;51.934;10.330;2023-04-23T12:14:25;98244.22;;;21.35;45.81
24762;BME280;12865;51.934;10.330;2023-04-23T12:17:13;98249.81;;;21.63;46.27
24762;BME280;12865;51.934;10.330;2023-04-23T12:20:03;98246.13;;;21.46;40.79
24762;BME280;12865;51.934;10.330;2023-04-23T12:22:48;98244.88;;;21.19;40.45
24762;BME280;12865;51.934;10.330;2023-04-23T12:25:35;98236.56;;;21.02;41.54
24762;BME280;12865;51.934;10.330;2023-04-23T12:28:24;98245.47;;;20.91;40.89
24762;BME280;12865;51.934;10.330;2023-04-23T12:31:10;98225.25;;;20.75;42.17
24762;BME280;12865;51.934;10.330;2023-04-23T12:34:07;98230.25;;;20.42;43.22
24762;BME280;12865;51.934;10.330;2023-04-23T12:36:54;98222.88;;;20.67;44.79
24762;BME280;12865;51.934;10.330;2023-04-23T12:39:40;98221.56;;;20.99;45.26
24762;BME280;12865;51.934;10.330;2023-04-23T12:42:26;98221.47;;;21.36;46.63
24762;BME280;12865;51.934;10.330;2023-04-23T12:45:11;98232.44;;;21.29;43.05
24762;BME280;12865;51.934;10.330;2023-04-23T12:47:57;98225.44;;;20.92;41.90
24762;BME280;12865;51.934;10.330;2023-04-23T12:50:47;98223.78;;;20.91;41.93
24762;BME280;12865;51.934;10.330;2023-04-23T12:53:32;98223.28;;;20.82;42.38
24762;BME280;12865;51.934;10.330;2023-04-23T12:56:19;98226.28;;;21.22;44.83
24762;BME280;12865;51.934;10.330;2023-04-23T12:59:05;98217.19;;;21.17;42.70
24762;BME280;12865;51.934;10.330;2023-04-23T13:01:50;98215.44;;;21.04;44.50
24762;BME280;12865;51.934;10.330;2023-04-23T13:04:36;98214.16;;;21.48;43.94
24762;BME280;12865;51.934;10.330;2023-04-23T13:07:22;98214.50;;;21.40;41.21
24762;BME280;12865;51.934;10.330;2023-04-23T13:10:08;98218.44;;;20.54;40.63
24762;BME280;12865;51.934;10.330;2023-04-23T13:12:54;98211.56;;;20.70;41.38
24762;BME280;12865;51.934;10.330;2023-04-23T13:15:41;98208.16;;;20.45;40.92
24762;BME280;12865;51.934;10.330;2023-04-23T13:18:26;98209.72;;;20.34;42.30
24762;BME280;12865;51.934;10.330;2023-04-23T13:21:13;98188.53;;;20.31;43.02
24762;BME280;12865;51.934;10.330;2023-04-23T13:23:58;98180.28;;;20.56;43.92
24762;BME280;12865;51.934;10.330;2023-04-23T13:26:44;98172.56;;;20.59;42.70
24762;BME280;12865;51.934;10.330;2023-04-23T13:29:30;98161.75;;;21.12;41.33
24762;BME280;12865;51.934;10.330;2023-04-23T13:32:15;98155.09;;;20.85;40.63
24762;BME280;12865;51.934;10.330;2023-04-23T13:35:01;98156.44;;;21.06;41.90
24762;BME280;12865;51.934;10.330;2023-04-23T13:37:49;98152.63;;;21.48;40.96
24762;BME280;12865;51.934;10.330;2023-04-23T13:40:35;98152.13;;;21.75;41.59
24762;BME280;12865;51.934;10.330;2023-04-23T13:43:20;98147.22;;;21.37;43.32
24762;BME280;12865;51.934;10.330;2023-04-23T13:46:06;98143.38;;;21.14;42.74
24762;BME280;12865;51.934;10.330;2023-04-23T13:48:52;98140.47;;;21.28;43.35
24762;BME280;12865;51.934;10.330;2023-04-23T13:51:38;98132.78;;;20.42;42.36
24762;BME280;12865;51.934;10.330;2023-04-23T13:54:24;98135.91;;;20.57;43.61
24762;BME280;12865;51.934;10.330;2023-04-23T13:57:14;98120.41;;;20.64;44.03
24762;BME280;12865;51.934;10.330;2023-04-23T13:59:59;98127.78;;;20.57;43.47
24762;BME280;12865;51.934;10.330;2023-04-23T14:02:45;98129.78;;;20.50;43.82
24762;BME280;12865;51.934;10.330;2023-04-23T14:05:31;98128.00;;;20.07;44.94
24762;BME280;12865;51.934;10.330;2023-04-23T14:08:16;98115.22;;;20.14;45.95
24762;BME280;12865;51.934;10.330;2023-04-23T14:11:03;98126.44;;;20.18;44.68
24762;BME280;12865;51.934;10.330;2023-04-23T14:13:49;98114.88;;;20.11;45.60
24762;BME280;12865;51.934;10.330;2023-04-23T14:16:35;98120.63;;;20.14;44.50
24762;BME280;12865;51.934;10.330;2023-04-23T14:19:20;98112.66;;;20.19;45.94
24762;BME280;12865;51.934;10.330;2023-04-23T14:22:06;98112.13;;;20.29;45.00
24762;BME280;12865;51.934;10.330;2023-04-23T14:25:07;98107.19;;;20.08;44.56
24762;BME280;12865;51.934;10.330;2023-04-23T14:27:54;98104.34;;;19.84;46.25
24762;BME280;12865;51.934;10.330;2023-04-23T14:30:41;98099.28;;;19.76;44.80
24762;BME280;12865;51.934;10.330;2023-04-23T14:33:26;98087.75;;;19.81;45.48